メインページ
METAR-TAF:

METAR-TAF

空港 :

ブルネイ国際空港

ブルネイ, ブルネイ

緯度: 04-56N, 経度: 114-56E, 海抜: 22m

現時点の気象観測

当レポートは12分前の12:00(UTC)に作成
北西の風 4kt
気温 25°C
湿度 100%
気圧 1010 hPa
視程: 3000m
高度400ftの雲はほとんどない
高度1400ftの雲は散在している
高度1500ftの雲はほとんどない, 積乱雲.
高度15000ftの千切れ雲あり
激しい雷雨, 大雨

METAR: WBSB 221200Z 31004KT 3000 +TSRA FEW004 SCT014 FEW015CB BKN150 25/25 Q1010 TEMPO 14015KT 2000 TSRA

時間: 20:12 (12:12 UTC)

予報

当レポートは1時間12分前の11:00(UTC)に作成
予報は22日の 12時(UTC)から 23日の 18時(UTC)まで有効
南東の風 3kt
視程10km以上
高度1400ftの雲は散在している
高度1500ftの雲はほとんどない, 積乱雲.
22日の 12時(UTC)から 22日の 16時(UTC)まで一時的に
視程: 8000m
小雨
23日の 03時(UTC)から 23日の 05時(UTC)まで徐々に
北/北西の風 10kt
高度1500ftの雲はほとんどない
高度1600ftの雲はほとんどない, 積乱雲.
23日の 04時(UTC)から 23日の 06時(UTC)まで一時的に
視程: 4000m
高度1400ftの雲は散在している
高度1500ftの雲はほとんどない, 積乱雲.
激しい雷雨, 雨

TAF: WBSB 221100Z 2212/2318 14003KT 9999 SCT014 FEW015CB TEMPO 2212/2216 8000 -RA BECMG 2303/2305 33010KT FEW015 FEW016CB TEMPO 2304/2306 4000 TSRA SCT014 FEW015CB

4,000以上の空港の気象観測と天気予報(METAR報とTAF報)

利用可能な観測所は地図上に黄色い丸と赤い丸で示す。

丸の上にカーソルを重ねると観測所名を参照できる。

次にクリックすると気象観測と天気予報を参照できる。

マップの切り替え:黒色「×」印の緑ボタンをクリックして拡大、「-」印の緑ボタンをクリックして縮小、緑色の三角印をクリックして隣りの地図に切り替え


METAR-TAF: